createdAt,value
2018-05-07T00:01:38.114Z,47.40
2018-05-07T00:05:40.757Z,47.30
2018-05-07T00:09:43.544Z,47.30
2018-05-07T00:13:46.212Z,47.40
2018-05-07T00:17:48.847Z,47.50
2018-05-07T00:21:51.453Z,47.40
2018-05-07T00:25:54.090Z,47.50
2018-05-07T00:29:56.731Z,47.40
2018-05-07T00:33:59.381Z,47.40
2018-05-07T00:38:02.748Z,47.30
2018-05-07T00:42:05.385Z,47.20
2018-05-07T00:46:08.788Z,47.80
2018-05-07T00:50:12.204Z,47.70
2018-05-07T00:54:14.844Z,47.70
2018-05-07T00:58:17.467Z,47.60
2018-05-07T01:02:20.881Z,47.90
2018-05-07T01:06:24.340Z,48.00
2018-05-07T01:10:26.982Z,47.90
2018-05-07T01:14:29.630Z,47.80
2018-05-07T01:18:32.236Z,47.80
2018-05-07T01:22:35.646Z,47.90
2018-05-07T01:26:39.053Z,47.90
2018-05-07T01:30:42.588Z,47.90
2018-05-07T01:34:45.223Z,47.90
2018-05-07T01:38:47.889Z,47.80
2018-05-07T01:42:50.590Z,47.80
2018-05-07T01:46:53.288Z,47.80
2018-05-07T01:50:55.980Z,47.80
2018-05-07T01:54:58.631Z,47.70
2018-05-07T01:59:01.243Z,47.90
2018-05-07T02:03:03.881Z,47.80
2018-05-07T02:07:07.300Z,47.80
2018-05-07T02:11:09.935Z,47.80
2018-05-07T02:15:12.537Z,48.00
2018-05-07T02:19:15.176Z,48.00
2018-05-07T02:23:17.812Z,47.80
2018-05-07T02:27:20.451Z,47.80
2018-05-07T02:31:23.120Z,47.90
2018-05-07T02:35:26.490Z,48.20
2018-05-07T02:39:29.128Z,48.10
2018-05-07T02:43:31.765Z,48.10
2018-05-07T02:47:34.467Z,48.10
2018-05-07T02:51:37.118Z,48.20
2018-05-07T02:55:39.730Z,48.90
2018-05-07T02:59:42.368Z,48.40
2018-05-07T03:03:45.009Z,48.50
2018-05-07T03:07:47.644Z,48.50
2018-05-07T03:11:50.302Z,48.30
2018-05-07T03:15:53.706Z,48.20
2018-05-07T03:19:57.107Z,48.20
2018-05-07T03:23:59.757Z,48.20
2018-05-07T03:28:02.389Z,48.30
2018-05-07T03:32:05.761Z,48.90
2018-05-07T03:36:08.395Z,48.90
2018-05-07T03:40:11.792Z,49.40
2018-05-07T03:44:15.196Z,48.90
2018-05-07T03:48:18.594Z,49.00
2018-05-07T03:52:21.189Z,48.90
2018-05-07T03:56:24.593Z,48.60
2018-05-07T04:00:27.996Z,50.10
2018-05-07T04:04:30.630Z,50.20
2018-05-07T04:08:34.120Z,50.40
2018-05-07T04:12:36.836Z,50.70
2018-05-07T04:16:51.405Z,51.60
2018-05-07T04:21:05.892Z,51.50
2018-05-07T04:25:08.530Z,50.30
2018-05-07T04:29:11.181Z,49.70
2018-05-07T04:33:13.780Z,49.90
2018-05-07T04:37:16.448Z,49.80
2018-05-07T04:41:19.884Z,49.90
2018-05-07T04:45:23.285Z,49.50
2018-05-07T04:49:26.669Z,49.70
2018-05-07T04:53:29.306Z,49.70
2018-05-07T04:57:31.944Z,49.20
2018-05-07T05:01:34.640Z,49.20
2018-05-07T05:05:37.334Z,49.50
2018-05-07T05:09:39.936Z,49.60
2018-05-07T05:13:43.339Z,50.80
2018-05-07T05:17:46.743Z,51.40
2018-05-07T05:21:50.144Z,49.90
2018-05-07T05:25:52.791Z,50.40
2018-05-07T05:29:55.391Z,52.10
2018-05-07T05:33:58.029Z,50.70
2018-05-07T05:38:01.800Z,51.00
2018-05-07T05:42:04.435Z,52.70
2018-05-07T05:46:07.072Z,51.40
2018-05-07T05:50:09.722Z,51.40
2018-05-07T05:54:12.340Z,51.00
2018-05-07T05:58:14.972Z,51.00
2018-05-07T06:02:18.376Z,54.60
2018-05-07T06:06:21.748Z,55.00
2018-05-07T06:10:24.389Z,55.60
2018-05-07T06:14:27.911Z,54.30
2018-05-07T06:18:30.481Z,54.20
2018-05-07T06:22:33.192Z,54.70
2018-05-07T06:26:35.804Z,58.80
2018-05-07T06:30:38.444Z,56.40
2018-05-07T06:34:41.096Z,58.50
2018-05-07T06:38:43.836Z,55.20
2018-05-07T06:42:46.477Z,54.40
2018-05-07T06:46:49.136Z,53.00
2018-05-07T06:50:51.808Z,51.70
2018-05-07T06:54:54.455Z,50.30
2018-05-07T06:58:57.161Z,49.00
2018-05-07T07:03:00.608Z,46.70
2018-05-07T07:07:03.208Z,46.60
2018-05-07T07:11:05.857Z,45.90
2018-05-07T07:15:08.508Z,45.40
2018-05-07T07:19:11.194Z,44.30
2018-05-07T07:23:13.796Z,43.80
2018-05-07T07:27:17.217Z,42.30
2018-05-07T07:31:20.645Z,41.00
2018-05-07T07:35:23.284Z,41.00
2018-05-07T07:39:26.005Z,40.10
2018-05-07T07:43:28.680Z,41.00
2018-05-07T07:47:32.101Z,41.60
2018-05-07T07:51:34.756Z,41.50
2018-05-07T07:55:37.408Z,41.20
2018-05-07T07:59:40.048Z,40.50
2018-05-07T08:03:42.655Z,40.10
2018-05-07T08:07:46.063Z,39.70
2018-05-07T08:11:49.463Z,38.60
2018-05-07T08:15:52.870Z,39.50
2018-05-07T08:19:56.276Z,39.00
2018-05-07T08:23:59.636Z,39.10
2018-05-07T08:28:02.278Z,39.10
2018-05-07T08:32:05.017Z,38.40
2018-05-07T08:36:07.704Z,38.00
2018-05-07T08:40:10.380Z,36.60
2018-05-07T08:44:13.015Z,37.70
2018-05-07T08:48:15.743Z,37.00
2018-05-07T08:52:18.414Z,34.50
2018-05-07T08:56:21.059Z,36.20
2018-05-07T09:00:24.087Z,36.90
2018-05-07T09:04:27.490Z,38.40
2018-05-07T09:08:30.895Z,40.20
2018-05-07T09:12:34.290Z,40.20
2018-05-07T09:16:36.933Z,40.10
2018-05-07T09:20:39.600Z,41.20
2018-05-07T09:24:42.311Z,41.60
2018-05-07T09:28:45.679Z,41.30
2018-05-07T09:32:49.092Z,42.00
2018-05-07T09:36:51.736Z,42.00
2018-05-07T09:40:54.339Z,42.20
2018-05-07T09:44:57.066Z,42.40
2018-05-07T09:48:59.703Z,42.20
2018-05-07T09:53:03.138Z,43.10
2018-05-07T09:57:06.558Z,43.00
2018-05-07T10:01:09.179Z,42.90
2018-05-07T10:05:11.821Z,43.40
2018-05-07T10:09:15.229Z,43.50
2018-05-07T10:13:18.636Z,43.60
2018-05-07T10:17:22.039Z,43.80
2018-05-07T10:21:25.419Z,43.70
2018-05-07T10:25:28.060Z,43.60
2018-05-07T10:29:30.748Z,43.50
2018-05-07T10:33:33.391Z,43.90
2018-05-07T10:37:36.044Z,43.30
2018-05-07T10:41:38.640Z,44.30
2018-05-07T10:45:41.300Z,44.00
2018-05-07T10:49:43.939Z,44.10
2018-05-07T10:53:46.581Z,43.90
2018-05-07T10:57:49.219Z,43.80
2018-05-07T11:01:51.880Z,43.60
2018-05-07T11:05:54.520Z,44.20
2018-05-07T11:09:57.925Z,43.60
2018-05-07T11:18:03.425Z,43.50
2018-05-07T11:22:06.035Z,43.50
2018-05-07T11:26:08.695Z,43.30
2018-05-07T11:30:11.391Z,43.70
2018-05-07T11:34:14.055Z,43.80
2018-05-07T11:38:17.519Z,43.00
2018-05-07T11:42:20.119Z,42.90
2018-05-07T11:46:22.764Z,44.10
2018-05-07T11:50:25.407Z,44.00
2018-05-07T11:54:28.107Z,43.30
2018-05-07T11:58:30.800Z,43.90
2018-05-07T12:02:33.404Z,43.20
2018-05-07T12:06:36.812Z,43.90
2018-05-07T12:10:40.216Z,43.50
2018-05-07T12:14:43.629Z,42.70
2018-05-07T12:18:46.266Z,42.70
2018-05-07T12:22:48.879Z,41.50
2018-05-07T12:26:51.579Z,41.80
2018-05-07T12:30:54.981Z,40.50
2018-05-07T12:34:58.416Z,41.50
2018-05-07T12:39:01.061Z,41.40
2018-05-07T12:47:06.867Z,42.40
2018-05-07T12:51:10.271Z,37.90
2018-05-07T12:55:13.671Z,40.10
2018-05-07T12:59:17.073Z,40.60
2018-05-07T13:03:19.682Z,40.00
2018-05-07T13:07:23.092Z,39.50
2018-05-07T13:11:25.825Z,39.40
2018-05-07T13:15:29.959Z,40.90
2018-05-07T13:19:32.592Z,40.90
2018-05-07T13:23:35.963Z,40.30
2018-05-07T13:27:38.608Z,40.30
2018-05-07T13:31:41.255Z,40.80
2018-05-07T13:35:43.887Z,40.30
2018-05-07T13:39:47.294Z,39.90
2018-05-07T13:43:49.899Z,39.90
2018-05-07T13:47:52.587Z,38.60
2018-05-07T13:51:55.220Z,39.10
2018-05-07T13:55:58.688Z,37.70
2018-05-07T14:00:01.363Z,36.90
2018-05-07T14:04:03.969Z,39.00
2018-05-07T14:08:07.404Z,36.90
2018-05-07T14:12:10.046Z,36.80
2018-05-07T14:16:12.680Z,36.30
2018-05-07T14:20:15.323Z,36.30
2018-05-07T14:24:17.935Z,37.90
2018-05-07T14:28:20.569Z,37.40
2018-05-07T14:32:23.272Z,38.00
2018-05-07T14:36:25.975Z,36.80
2018-05-07T14:40:28.885Z,34.10
2018-05-07T14:44:31.667Z,35.60
2018-05-07T14:48:34.801Z,36.00
2018-05-07T14:52:37.660Z,35.50
2018-05-07T14:56:40.711Z,36.70
2018-05-07T15:00:44.138Z,37.60
2018-05-07T15:04:47.536Z,36.80
2018-05-07T15:08:50.936Z,36.10
2018-05-07T15:12:54.628Z,36.20
2018-05-07T15:20:57.280Z,36.00
2018-05-07T15:25:00.735Z,37.50
2018-05-07T15:29:03.376Z,36.20
2018-05-07T15:33:06.417Z,36.90
2018-05-07T15:37:09.058Z,36.70
2018-05-07T15:41:11.699Z,37.20
2018-05-07T15:45:14.314Z,38.10
2018-05-07T15:49:16.956Z,36.30
2018-05-07T15:53:19.634Z,37.30
2018-05-07T15:57:23.053Z,36.40
2018-05-07T16:01:25.732Z,36.40
2018-05-07T16:05:28.372Z,36.90
2018-05-07T16:09:31.020Z,37.10
2018-05-07T16:13:34.425Z,37.80
2018-05-07T16:17:37.124Z,37.80
2018-05-07T16:21:39.765Z,35.40
2018-05-07T16:25:43.172Z,38.80
2018-05-07T16:29:45.821Z,38.70
2018-05-07T16:33:48.467Z,38.10
2018-05-07T16:37:51.869Z,37.70
2018-05-07T16:41:54.504Z,37.20
2018-05-07T16:45:57.158Z,37.70
2018-05-07T16:50:00.561Z,38.90
2018-05-07T16:54:03.964Z,39.30
2018-05-07T16:58:07.368Z,38.10
2018-05-07T17:02:10.776Z,38.80
2018-05-07T17:06:14.149Z,38.80
2018-05-07T17:10:16.800Z,38.80
2018-05-07T17:14:19.440Z,39.30
2018-05-07T17:18:22.080Z,39.30
2018-05-07T17:22:24.711Z,39.60
2018-05-07T17:26:27.376Z,39.30
2018-05-07T17:30:30.540Z,39.60
2018-05-07T17:34:33.961Z,39.90
2018-05-07T17:38:36.623Z,39.90
2018-05-07T17:42:39.279Z,40.30
2018-05-07T17:46:53.792Z,40.10
2018-05-07T17:50:56.441Z,40.70
2018-05-07T17:54:59.141Z,40.90
2018-05-07T17:59:02.568Z,42.00
2018-05-07T18:03:05.979Z,41.40
2018-05-07T18:07:09.356Z,41.70
2018-05-07T18:11:11.997Z,41.60
2018-05-07T18:15:14.686Z,41.80
2018-05-07T18:19:17.401Z,42.00
2018-05-07T18:23:20.750Z,42.10
2018-05-07T18:27:24.114Z,42.30
2018-05-07T18:31:26.817Z,42.30
2018-05-07T18:35:30.257Z,42.40
2018-05-07T18:39:33.666Z,42.60
2018-05-07T18:43:37.073Z,42.60
2018-05-07T18:47:39.681Z,42.60
2018-05-07T18:51:42.373Z,42.40
2018-05-07T18:55:45.056Z,42.70
2018-05-07T18:59:47.696Z,42.90
2018-05-07T19:03:50.368Z,43.00
2018-05-07T19:07:53.032Z,43.00
2018-05-07T19:11:56.432Z,42.90
2018-05-07T19:15:59.062Z,42.80
2018-05-07T19:20:01.798Z,42.90
2018-05-07T19:24:04.439Z,43.70
2018-05-07T19:28:07.107Z,42.80
2018-05-07T19:32:09.744Z,42.90
2018-05-07T19:36:13.200Z,42.90
2018-05-07T19:40:15.828Z,42.90
2018-05-07T19:44:19.299Z,42.90
2018-05-07T19:48:21.926Z,42.80
2018-05-07T19:52:25.328Z,43.00
2018-05-07T19:56:27.963Z,42.90
2018-05-07T20:00:31.417Z,43.40
2018-05-07T20:04:34.048Z,43.30
2018-05-07T20:08:36.652Z,43.30
2018-05-07T20:12:39.305Z,43.20
2018-05-07T20:16:41.956Z,43.20
2018-05-07T20:20:44.591Z,43.20
2018-05-07T20:24:47.227Z,43.20
2018-05-07T20:28:49.831Z,43.30
2018-05-07T20:32:52.516Z,43.30
2018-05-07T20:36:55.159Z,43.30
2018-05-07T20:40:57.792Z,43.30
2018-05-07T20:45:00.431Z,43.40
2018-05-07T20:49:03.032Z,43.50
2018-05-07T20:53:05.663Z,43.40
2018-05-07T20:57:08.305Z,43.50
2018-05-07T21:01:10.972Z,44.10
2018-05-07T21:05:13.575Z,43.50
2018-05-07T21:09:16.209Z,43.60
2018-05-07T21:13:18.843Z,43.80
2018-05-07T21:17:21.480Z,44.50
2018-05-07T21:21:24.120Z,43.80
2018-05-07T21:25:26.729Z,43.90
2018-05-07T21:29:29.372Z,43.90
2018-05-07T21:33:32.768Z,44.10
2018-05-07T21:37:36.171Z,44.30
2018-05-07T21:41:39.632Z,44.40
2018-05-07T21:45:42.267Z,44.30
2018-05-07T21:49:44.908Z,44.40
2018-05-07T21:53:47.541Z,44.50
2018-05-07T21:57:50.172Z,44.50
2018-05-07T22:01:52.819Z,45.30
2018-05-07T22:05:56.194Z,45.30
2018-05-07T22:09:58.826Z,44.60
2018-05-07T22:14:02.247Z,44.60
2018-05-07T22:18:04.888Z,44.50
2018-05-07T22:22:07.628Z,44.70
2018-05-07T22:26:10.277Z,44.70
2018-05-07T22:30:12.887Z,44.70
2018-05-07T22:34:16.412Z,44.80
2018-05-07T22:38:19.047Z,44.80
2018-05-07T22:42:21.703Z,44.70
2018-05-07T22:46:24.308Z,44.90
2018-05-07T22:50:26.949Z,44.90
2018-05-07T22:54:30.363Z,45.10
2018-05-07T22:58:32.998Z,45.00
2018-05-07T23:02:35.600Z,45.20
2018-05-07T23:06:38.235Z,45.30
2018-05-07T23:10:40.877Z,45.30
2018-05-07T23:14:43.512Z,45.50
2018-05-07T23:18:46.144Z,45.40
2018-05-07T23:22:48.740Z,45.60
2018-05-07T23:26:51.376Z,45.30
2018-05-07T23:30:54.009Z,45.50
2018-05-07T23:34:56.652Z,45.60
2018-05-07T23:38:59.295Z,45.50
2018-05-07T23:43:01.901Z,45.60
2018-05-07T23:47:05.312Z,45.70
2018-05-07T23:51:08.723Z,45.90
2018-05-07T23:55:12.120Z,45.80
2018-05-07T23:59:15.524Z,45.80
